sensor_id;sensor_type;location;lat;lon;timestamp;temperature;humidity
43995;DHT22;51687;52.160;5.298;2022-11-23T00:00:40;13.20;69.10
43995;DHT22;51687;52.160;5.298;2022-11-23T00:03:14;13.20;69.20
43995;DHT22;51687;52.160;5.298;2022-11-23T00:05:41;13.20;69.20
43995;DHT22;51687;52.160;5.298;2022-11-23T00:08:08;13.10;69.10
43995;DHT22;51687;52.160;5.298;2022-11-23T00:10:36;13.10;69.30
43995;DHT22;51687;52.160;5.298;2022-11-23T00:13:03;13.20;69.30
43995;DHT22;51687;52.160;5.298;2022-11-23T00:15:30;13.10;69.90
43995;DHT22;51687;52.160;5.298;2022-11-23T00:17:58;13.10;69.40
43995;DHT22;51687;52.160;5.298;2022-11-23T00:20:26;13.20;69.50
43995;DHT22;51687;52.160;5.298;2022-11-23T00:22:55;13.20;69.50
43995;DHT22;51687;52.160;5.298;2022-11-23T00:25:21;13.20;69.50
43995;DHT22;51687;52.160;5.298;2022-11-23T00:27:48;13.10;69.40
43995;DHT22;51687;52.160;5.298;2022-11-23T00:30:15;13.20;69.40
43995;DHT22;51687;52.160;5.298;2022-11-23T00:32:42;13.10;69.40
43995;DHT22;51687;52.160;5.298;2022-11-23T00:35:09;13.10;69.50
43995;DHT22;51687;52.160;5.298;2022-11-23T00:37:36;13.20;69.60
43995;DHT22;51687;52.160;5.298;2022-11-23T00:40:03;13.20;69.60
43995;DHT22;51687;52.160;5.298;2022-11-23T00:42:30;13.20;69.50
43995;DHT22;51687;52.160;5.298;2022-11-23T00:45:03;13.20;69.50
43995;DHT22;51687;52.160;5.298;2022-11-23T00:47:30;13.10;69.50
43995;DHT22;51687;52.160;5.298;2022-11-23T00:49:57;13.10;69.70
43995;DHT22;51687;52.160;5.298;2022-11-23T00:52:24;13.10;69.70
43995;DHT22;51687;52.160;5.298;2022-11-23T00:54:50;13.10;69.70
43995;DHT22;51687;52.160;5.298;2022-11-23T00:57:17;13.20;69.70
43995;DHT22;51687;52.160;5.298;2022-11-23T00:59:44;13.10;69.50
43995;DHT22;51687;52.160;5.298;2022-11-23T01:02:11;13.20;69.50
43995;DHT22;51687;52.160;5.298;2022-11-23T01:04:38;13.10;69.50
43995;DHT22;51687;52.160;5.298;2022-11-23T01:07:05;13.10;69.60
43995;DHT22;51687;52.160;5.298;2022-11-23T01:09:32;13.10;69.60
43995;DHT22;51687;52.160;5.298;2022-11-23T01:11:59;13.10;69.60
43995;DHT22;51687;52.160;5.298;2022-11-23T01:14:26;13.20;69.60
43995;DHT22;51687;52.160;5.298;2022-11-23T01:16:53;13.20;69.60
43995;DHT22;51687;52.160;5.298;2022-11-23T01:19:20;13.10;69.60
43995;DHT22;51687;52.160;5.298;2022-11-23T01:21:46;13.10;69.60
43995;DHT22;51687;52.160;5.298;2022-11-23T01:24:21;13.20;69.60
43995;DHT22;51687;52.160;5.298;2022-11-23T01:26:52;13.10;69.50
43995;DHT22;51687;52.160;5.298;2022-11-23T01:29:19;13.10;69.50
43995;DHT22;51687;52.160;5.298;2022-11-23T01:31:46;13.10;69.50
43995;DHT22;51687;52.160;5.298;2022-11-23T01:34:14;13.10;69.50
43995;DHT22;51687;52.160;5.298;2022-11-23T01:36:41;13.10;69.50
43995;DHT22;51687;52.160;5.298;2022-11-23T01:39:09;13.10;69.30
43995;DHT22;51687;52.160;5.298;2022-11-23T01:41:41;13.20;69.40
43995;DHT22;51687;52.160;5.298;2022-11-23T01:44:31;13.20;69.30
43995;DHT22;51687;52.160;5.298;2022-11-23T01:47:00;13.20;69.40
43995;DHT22;51687;52.160;5.298;2022-11-23T01:49:32;13.20;69.30
43995;DHT22;51687;52.160;5.298;2022-11-23T01:52:06;13.20;69.40
43995;DHT22;51687;52.160;5.298;2022-11-23T01:54:42;13.10;69.20
43995;DHT22;51687;52.160;5.298;2022-11-23T01:57:15;13.20;69.30
43995;DHT22;51687;52.160;5.298;2022-11-23T01:59:45;13.20;69.20
43995;DHT22;51687;52.160;5.298;2022-11-23T02:02:13;13.20;69.30
43995;DHT22;51687;52.160;5.298;2022-11-23T02:04:42;13.20;69.30
43995;DHT22;51687;52.160;5.298;2022-11-23T02:07:12;13.20;69.30
43995;DHT22;51687;52.160;5.298;2022-11-23T02:09:41;13.20;69.30
43995;DHT22;51687;52.160;5.298;2022-11-23T02:12:13;13.20;69.40
43995;DHT22;51687;52.160;5.298;2022-11-23T02:14:41;13.20;69.40
43995;DHT22;51687;52.160;5.298;2022-11-23T02:17:08;13.20;69.40
43995;DHT22;51687;52.160;5.298;2022-11-23T02:22:36;13.20;69.40
43995;DHT22;51687;52.160;5.298;2022-11-23T02:25:09;13.20;69.40
43995;DHT22;51687;52.160;5.298;2022-11-23T02:27:38;13.20;69.30
43995;DHT22;51687;52.160;5.298;2022-11-23T02:30:12;13.20;69.20
43995;DHT22;51687;52.160;5.298;2022-11-23T02:32:39;13.20;69.20
43995;DHT22;51687;52.160;5.298;2022-11-23T02:35:08;13.20;69.20
43995;DHT22;51687;52.160;5.298;2022-11-23T02:37:35;13.20;69.10
43995;DHT22;51687;52.160;5.298;2022-11-23T02:40:11;13.20;69.10
43995;DHT22;51687;52.160;5.298;2022-11-23T02:42:43;13.20;69.20
43995;DHT22;51687;52.160;5.298;2022-11-23T02:45:35;13.20;69.00
43995;DHT22;51687;52.160;5.298;2022-11-23T02:48:20;13.20;68.80
43995;DHT22;51687;52.160;5.298;2022-11-23T02:50:47;13.20;68.70
43995;DHT22;51687;52.160;5.298;2022-11-23T02:53:14;13.20;68.70
43995;DHT22;51687;52.160;5.298;2022-11-23T02:55:40;13.20;68.70
43995;DHT22;51687;52.160;5.298;2022-11-23T02:58:07;13.20;68.60
43995;DHT22;51687;52.160;5.298;2022-11-23T03:00:40;13.10;68.40
43995;DHT22;51687;52.160;5.298;2022-11-23T03:03:07;13.20;68.40
43995;DHT22;51687;52.160;5.298;2022-11-23T03:05:34;13.10;68.30
43995;DHT22;51687;52.160;5.298;2022-11-23T03:08:00;13.10;68.40
43995;DHT22;51687;52.160;5.298;2022-11-23T03:10:27;13.10;68.40
43995;DHT22;51687;52.160;5.298;2022-11-23T03:12:55;13.10;68.40
43995;DHT22;51687;52.160;5.298;2022-11-23T03:15:22;13.10;68.40
43995;DHT22;51687;52.160;5.298;2022-11-23T03:17:49;13.10;68.60
43995;DHT22;51687;52.160;5.298;2022-11-23T03:20:16;13.20;68.20
43995;DHT22;51687;52.160;5.298;2022-11-23T03:22:44;13.10;67.80
43995;DHT22;51687;52.160;5.298;2022-11-23T03:25:10;13.20;67.70
43995;DHT22;51687;52.160;5.298;2022-11-23T03:27:38;13.20;67.60
43995;DHT22;51687;52.160;5.298;2022-11-23T03:30:06;13.10;67.60
43995;DHT22;51687;52.160;5.298;2022-11-23T03:32:34;13.10;67.50
43995;DHT22;51687;52.160;5.298;2022-11-23T03:35:03;13.10;67.40
43995;DHT22;51687;52.160;5.298;2022-11-23T03:37:30;13.10;67.40
43995;DHT22;51687;52.160;5.298;2022-11-23T03:39:56;13.10;67.40
43995;DHT22;51687;52.160;5.298;2022-11-23T03:42:23;13.10;67.20
43995;DHT22;51687;52.160;5.298;2022-11-23T03:44:50;13.10;67.30
43995;DHT22;51687;52.160;5.298;2022-11-23T03:47:16;13.10;67.30
43995;DHT22;51687;52.160;5.298;2022-11-23T03:49:43;13.10;67.30
43995;DHT22;51687;52.160;5.298;2022-11-23T03:52:10;13.10;67.20
43995;DHT22;51687;52.160;5.298;2022-11-23T03:54:37;13.10;67.10
43995;DHT22;51687;52.160;5.298;2022-11-23T03:57:03;13.10;67.00
43995;DHT22;51687;52.160;5.298;2022-11-23T03:59:30;13.20;67.00
43995;DHT22;51687;52.160;5.298;2022-11-23T04:01:57;13.20;66.90
43995;DHT22;51687;52.160;5.298;2022-11-23T04:04:24;13.20;66.90
43995;DHT22;51687;52.160;5.298;2022-11-23T04:06:51;13.20;67.00
43995;DHT22;51687;52.160;5.298;2022-11-23T04:09:17;13.20;67.00
43995;DHT22;51687;52.160;5.298;2022-11-23T04:11:44;13.20;66.90
43995;DHT22;51687;52.160;5.298;2022-11-23T04:14:11;13.20;66.80
43995;DHT22;51687;52.160;5.298;2022-11-23T04:16:38;13.20;66.80
43995;DHT22;51687;52.160;5.298;2022-11-23T04:19:04;13.20;66.60
43995;DHT22;51687;52.160;5.298;2022-11-23T04:21:31;13.30;66.60
43995;DHT22;51687;52.160;5.298;2022-11-23T04:23:58;13.30;66.70
43995;DHT22;51687;52.160;5.298;2022-11-23T04:26:25;13.30;66.60
43995;DHT22;51687;52.160;5.298;2022-11-23T04:28:51;13.30;66.70
43995;DHT22;51687;52.160;5.298;2022-11-23T04:31:18;13.30;66.70
43995;DHT22;51687;52.160;5.298;2022-11-23T04:33:45;13.30;67.30
43995;DHT22;51687;52.160;5.298;2022-11-23T04:36:11;13.30;66.70
43995;DHT22;51687;52.160;5.298;2022-11-23T04:38:39;13.30;66.70
43995;DHT22;51687;52.160;5.298;2022-11-23T04:41:06;13.30;66.60
43995;DHT22;51687;52.160;5.298;2022-11-23T04:43:33;13.30;66.60
43995;DHT22;51687;52.160;5.298;2022-11-23T04:46:00;13.30;66.50
43995;DHT22;51687;52.160;5.298;2022-11-23T04:48:27;13.30;66.70
43995;DHT22;51687;52.160;5.298;2022-11-23T04:50:56;13.30;66.60
43995;DHT22;51687;52.160;5.298;2022-11-23T04:53:23;13.30;66.80
43995;DHT22;51687;52.160;5.298;2022-11-23T04:55:50;13.30;66.70
43995;DHT22;51687;52.160;5.298;2022-11-23T04:58:17;13.30;66.70
43995;DHT22;51687;52.160;5.298;2022-11-23T05:00:43;13.40;66.50
43995;DHT22;51687;52.160;5.298;2022-11-23T05:03:10;13.40;66.60
43995;DHT22;51687;52.160;5.298;2022-11-23T05:05:38;13.40;66.50
43995;DHT22;51687;52.160;5.298;2022-11-23T05:08:06;13.40;66.30
43995;DHT22;51687;52.160;5.298;2022-11-23T05:10:35;13.40;66.20
43995;DHT22;51687;52.160;5.298;2022-11-23T05:13:02;13.40;66.00
43995;DHT22;51687;52.160;5.298;2022-11-23T05:15:29;13.50;65.90
43995;DHT22;51687;52.160;5.298;2022-11-23T05:18:03;13.50;65.80
43995;DHT22;51687;52.160;5.298;2022-11-23T05:20:33;13.50;65.80
43995;DHT22;51687;52.160;5.298;2022-11-23T05:23:00;13.50;65.60
43995;DHT22;51687;52.160;5.298;2022-11-23T05:25:27;13.50;65.60
43995;DHT22;51687;52.160;5.298;2022-11-23T05:27:55;13.50;65.40
43995;DHT22;51687;52.160;5.298;2022-11-23T05:30:22;13.40;65.40
43995;DHT22;51687;52.160;5.298;2022-11-23T05:32:49;13.50;65.60
43995;DHT22;51687;52.160;5.298;2022-11-23T05:35:15;13.50;66.00
43995;DHT22;51687;52.160;5.298;2022-11-23T05:37:42;13.50;65.30
43995;DHT22;51687;52.160;5.298;2022-11-23T05:40:09;13.50;65.20
43995;DHT22;51687;52.160;5.298;2022-11-23T05:42:37;13.50;65.10
43995;DHT22;51687;52.160;5.298;2022-11-23T05:45:04;13.50;65.00
43995;DHT22;51687;52.160;5.298;2022-11-23T05:47:37;13.50;64.90
43995;DHT22;51687;52.160;5.298;2022-11-23T05:50:04;13.50;64.80
43995;DHT22;51687;52.160;5.298;2022-11-23T05:52:31;13.50;64.80
43995;DHT22;51687;52.160;5.298;2022-11-23T05:54:58;13.50;64.80
43995;DHT22;51687;52.160;5.298;2022-11-23T05:57:24;13.40;64.80
43995;DHT22;51687;52.160;5.298;2022-11-23T05:59:51;13.40;65.00
43995;DHT22;51687;52.160;5.298;2022-11-23T06:02:18;13.50;65.00
43995;DHT22;51687;52.160;5.298;2022-11-23T06:04:45;13.50;65.10
43995;DHT22;51687;52.160;5.298;2022-11-23T06:07:11;13.50;64.80
43995;DHT22;51687;52.160;5.298;2022-11-23T06:09:38;13.50;64.70
43995;DHT22;51687;52.160;5.298;2022-11-23T06:12:05;13.40;64.60
43995;DHT22;51687;52.160;5.298;2022-11-23T06:14:32;13.30;64.80
43995;DHT22;51687;52.160;5.298;2022-11-23T06:16:58;13.30;65.20
43995;DHT22;51687;52.160;5.298;2022-11-23T06:19:25;13.40;65.10
43995;DHT22;51687;52.160;5.298;2022-11-23T06:21:53;13.40;65.00
43995;DHT22;51687;52.160;5.298;2022-11-23T06:24:20;13.50;64.90
43995;DHT22;51687;52.160;5.298;2022-11-23T06:26:47;13.50;65.30
43995;DHT22;51687;52.160;5.298;2022-11-23T06:29:13;13.50;64.70
43995;DHT22;51687;52.160;5.298;2022-11-23T06:31:40;13.60;64.90
43995;DHT22;51687;52.160;5.298;2022-11-23T06:34:07;13.60;64.30
43995;DHT22;51687;52.160;5.298;2022-11-23T06:36:34;13.70;64.40
43995;DHT22;51687;52.160;5.298;2022-11-23T06:39:00;13.70;64.10
43995;DHT22;51687;52.160;5.298;2022-11-23T06:41:30;13.60;63.90
43995;DHT22;51687;52.160;5.298;2022-11-23T06:43:58;13.70;63.70
43995;DHT22;51687;52.160;5.298;2022-11-23T06:46:24;13.70;63.80
43995;DHT22;51687;52.160;5.298;2022-11-23T06:48:51;13.70;63.40
43995;DHT22;51687;52.160;5.298;2022-11-23T06:51:18;13.70;63.10
43995;DHT22;51687;52.160;5.298;2022-11-23T06:53:45;13.70;62.80
43995;DHT22;51687;52.160;5.298;2022-11-23T06:56:11;13.70;62.80
43995;DHT22;51687;52.160;5.298;2022-11-23T06:58:39;13.70;62.80
43995;DHT22;51687;52.160;5.298;2022-11-23T07:01:08;13.70;62.50
43995;DHT22;51687;52.160;5.298;2022-11-23T07:03:35;13.70;62.90
43995;DHT22;51687;52.160;5.298;2022-11-23T07:06:06;13.70;62.10
43995;DHT22;51687;52.160;5.298;2022-11-23T07:08:34;13.60;62.40
43995;DHT22;51687;52.160;5.298;2022-11-23T07:11:01;13.60;62.30
43995;DHT22;51687;52.160;5.298;2022-11-23T07:13:28;13.60;62.00
43995;DHT22;51687;52.160;5.298;2022-11-23T07:15:57;13.60;62.10
43995;DHT22;51687;52.160;5.298;2022-11-23T07:18:25;13.60;61.90
43995;DHT22;51687;52.160;5.298;2022-11-23T07:20:51;13.60;61.60
43995;DHT22;51687;52.160;5.298;2022-11-23T07:23:18;13.60;61.50
43995;DHT22;51687;52.160;5.298;2022-11-23T07:25:45;13.50;61.50
43995;DHT22;51687;52.160;5.298;2022-11-23T07:28:12;13.60;61.40
43995;DHT22;51687;52.160;5.298;2022-11-23T07:30:40;13.50;61.40
43995;DHT22;51687;52.160;5.298;2022-11-23T07:33:09;13.50;61.30
43995;DHT22;51687;52.160;5.298;2022-11-23T07:35:37;13.40;61.40
43995;DHT22;51687;52.160;5.298;2022-11-23T07:38:05;13.40;61.60
43995;DHT22;51687;52.160;5.298;2022-11-23T07:40:36;13.40;62.00
43995;DHT22;51687;52.160;5.298;2022-11-23T07:43:04;13.40;62.20
43995;DHT22;51687;52.160;5.298;2022-11-23T07:45:31;13.40;62.30
43995;DHT22;51687;52.160;5.298;2022-11-23T07:47:59;13.40;62.30
43995;DHT22;51687;52.160;5.298;2022-11-23T07:50:27;13.40;62.30
43995;DHT22;51687;52.160;5.298;2022-11-23T07:52:55;13.40;62.30
43995;DHT22;51687;52.160;5.298;2022-11-23T07:55:22;13.40;62.60
43995;DHT22;51687;52.160;5.298;2022-11-23T07:57:52;13.40;62.60
43995;DHT22;51687;52.160;5.298;2022-11-23T08:00:20;13.30;62.50
43995;DHT22;51687;52.160;5.298;2022-11-23T08:02:47;13.30;62.50
43995;DHT22;51687;52.160;5.298;2022-11-23T08:05:34;13.30;63.50
43995;DHT22;51687;52.160;5.298;2022-11-23T08:08:02;13.30;63.20
43995;DHT22;51687;52.160;5.298;2022-11-23T08:10:30;13.30;63.20
43995;DHT22;51687;52.160;5.298;2022-11-23T08:13:01;13.30;63.60
43995;DHT22;51687;52.160;5.298;2022-11-23T08:15:28;13.30;63.20
43995;DHT22;51687;52.160;5.298;2022-11-23T08:18:01;13.20;63.20
43995;DHT22;51687;52.160;5.298;2022-11-23T08:20:29;13.20;63.50
43995;DHT22;51687;52.160;5.298;2022-11-23T08:22:56;13.20;63.70
43995;DHT22;51687;52.160;5.298;2022-11-23T08:25:24;13.20;63.80
43995;DHT22;51687;52.160;5.298;2022-11-23T08:27:59;13.20;63.80
43995;DHT22;51687;52.160;5.298;2022-11-23T08:30:31;13.20;63.90
43995;DHT22;51687;52.160;5.298;2022-11-23T08:32:58;13.20;64.20
43995;DHT22;51687;52.160;5.298;2022-11-23T08:35:25;13.20;64.10
43995;DHT22;51687;52.160;5.298;2022-11-23T08:37:52;13.20;64.40
43995;DHT22;51687;52.160;5.298;2022-11-23T08:40:18;13.20;64.40
43995;DHT22;51687;52.160;5.298;2022-11-23T08:42:50;13.20;64.60
43995;DHT22;51687;52.160;5.298;2022-11-23T08:45:17;13.20;64.80
43995;DHT22;51687;52.160;5.298;2022-11-23T08:47:44;13.20;64.80
43995;DHT22;51687;52.160;5.298;2022-11-23T08:50:10;13.20;65.00
43995;DHT22;51687;52.160;5.298;2022-11-23T08:52:37;13.20;65.00
43995;DHT22;51687;52.160;5.298;2022-11-23T08:55:05;13.20;65.40
43995;DHT22;51687;52.160;5.298;2022-11-23T08:57:32;13.20;65.60
43995;DHT22;51687;52.160;5.298;2022-11-23T08:59:58;13.20;65.70
43995;DHT22;51687;52.160;5.298;2022-11-23T09:02:25;13.20;65.60
43995;DHT22;51687;52.160;5.298;2022-11-23T09:04:52;13.30;65.80
43995;DHT22;51687;52.160;5.298;2022-11-23T09:07:18;13.30;65.70
43995;DHT22;51687;52.160;5.298;2022-11-23T09:09:45;13.30;65.50
43995;DHT22;51687;52.160;5.298;2022-11-23T09:12:12;13.30;65.40
43995;DHT22;51687;52.160;5.298;2022-11-23T09:14:39;13.40;65.00
43995;DHT22;51687;52.160;5.298;2022-11-23T09:17:06;13.40;64.90
43995;DHT22;51687;52.160;5.298;2022-11-23T09:19:33;13.40;64.80
43995;DHT22;51687;52.160;5.298;2022-11-23T09:22:03;13.50;64.50
43995;DHT22;51687;52.160;5.298;2022-11-23T09:24:29;13.50;64.10
43995;DHT22;51687;52.160;5.298;2022-11-23T09:26:57;13.50;63.90
43995;DHT22;51687;52.160;5.298;2022-11-23T09:29:24;13.50;63.90
43995;DHT22;51687;52.160;5.298;2022-11-23T09:31:51;13.50;63.70
43995;DHT22;51687;52.160;5.298;2022-11-23T09:34:18;13.50;63.50
43995;DHT22;51687;52.160;5.298;2022-11-23T09:36:45;13.50;63.10
43995;DHT22;51687;52.160;5.298;2022-11-23T09:39:14;13.40;62.80
43995;DHT22;51687;52.160;5.298;2022-11-23T09:48:14;13.40;62.30
43995;DHT22;51687;52.160;5.298;2022-11-23T09:51:13;13.40;61.50
43995;DHT22;51687;52.160;5.298;2022-11-23T09:56:33;13.30;61.30
43995;DHT22;51687;52.160;5.298;2022-11-23T09:59:11;13.30;60.80
43995;DHT22;51687;52.160;5.298;2022-11-23T10:01:39;13.30;60.40
43995;DHT22;51687;52.160;5.298;2022-11-23T10:04:12;13.30;60.60
43995;DHT22;51687;52.160;5.298;2022-11-23T10:06:43;13.30;60.00
43995;DHT22;51687;52.160;5.298;2022-11-23T10:09:33;13.30;60.10
43995;DHT22;51687;52.160;5.298;2022-11-23T10:12:09;13.30;61.30
43995;DHT22;51687;52.160;5.298;2022-11-23T10:17:48;13.30;60.10
43995;DHT22;51687;52.160;5.298;2022-11-23T10:23:50;13.40;59.70
43995;DHT22;51687;52.160;5.298;2022-11-23T10:26:20;13.50;59.90
43995;DHT22;51687;52.160;5.298;2022-11-23T10:28:50;13.50;59.70
43995;DHT22;51687;52.160;5.298;2022-11-23T10:31:19;13.50;59.60
43995;DHT22;51687;52.160;5.298;2022-11-23T10:36:34;13.50;60.20
43995;DHT22;51687;52.160;5.298;2022-11-23T10:39:01;13.60;60.20
43995;DHT22;51687;52.160;5.298;2022-11-23T10:41:34;13.60;60.00
43995;DHT22;51687;52.160;5.298;2022-11-23T10:46:44;13.60;60.10
43995;DHT22;51687;52.160;5.298;2022-11-23T10:49:23;13.70;60.40
43995;DHT22;51687;52.160;5.298;2022-11-23T10:51:55;13.70;59.30
43995;DHT22;51687;52.160;5.298;2022-11-23T10:54:23;13.70;59.30
43995;DHT22;51687;52.160;5.298;2022-11-23T10:56:51;13.70;58.80
43995;DHT22;51687;52.160;5.298;2022-11-23T10:59:36;13.80;60.30
43995;DHT22;51687;52.160;5.298;2022-11-23T11:02:21;13.80;59.60
43995;DHT22;51687;52.160;5.298;2022-11-23T11:04:49;13.80;59.20
43995;DHT22;51687;52.160;5.298;2022-11-23T11:07:29;13.80;58.70
43995;DHT22;51687;52.160;5.298;2022-11-23T11:09:59;13.90;58.70
43995;DHT22;51687;52.160;5.298;2022-11-23T11:12:31;13.90;58.70
43995;DHT22;51687;52.160;5.298;2022-11-23T11:15:21;13.90;58.80
43995;DHT22;51687;52.160;5.298;2022-11-23T11:17:54;13.90;58.70
43995;DHT22;51687;52.160;5.298;2022-11-23T11:20:31;14.00;58.20
43995;DHT22;51687;52.160;5.298;2022-11-23T11:23:03;14.00;58.00
43995;DHT22;51687;52.160;5.298;2022-11-23T11:25:40;14.00;58.30
43995;DHT22;51687;52.160;5.298;2022-11-23T11:28:28;14.00;58.10
43995;DHT22;51687;52.160;5.298;2022-11-23T11:31:07;13.90;58.40
43995;DHT22;51687;52.160;5.298;2022-11-23T11:36:11;13.90;57.60
43995;DHT22;51687;52.160;5.298;2022-11-23T11:38:40;13.90;57.60
43995;DHT22;51687;52.160;5.298;2022-11-23T11:41:34;13.80;57.70
43995;DHT22;51687;52.160;5.298;2022-11-23T11:44:06;13.80;57.70
43995;DHT22;51687;52.160;5.298;2022-11-23T11:46:40;13.70;57.80
43995;DHT22;51687;52.160;5.298;2022-11-23T11:49:30;13.70;57.90
43995;DHT22;51687;52.160;5.298;2022-11-23T11:52:16;13.80;58.00
43995;DHT22;51687;52.160;5.298;2022-11-23T11:57:55;13.80;58.50
43995;DHT22;51687;52.160;5.298;2022-11-23T12:00:27;13.90;58.40
43995;DHT22;51687;52.160;5.298;2022-11-23T12:03:26;14.00;58.70
43995;DHT22;51687;52.160;5.298;2022-11-23T12:06:07;14.00;57.30
43995;DHT22;51687;52.160;5.298;2022-11-23T12:09:08;14.00;57.60
43995;DHT22;51687;52.160;5.298;2022-11-23T12:11:37;14.00;57.50
43995;DHT22;51687;52.160;5.298;2022-11-23T12:14:05;14.00;57.80
43995;DHT22;51687;52.160;5.298;2022-11-23T12:17:01;14.00;57.50
43995;DHT22;51687;52.160;5.298;2022-11-23T12:20:02;14.10;56.80
43995;DHT22;51687;52.160;5.298;2022-11-23T12:25:42;14.10;57.20
43995;DHT22;51687;52.160;5.298;2022-11-23T12:28:36;14.20;56.90
43995;DHT22;51687;52.160;5.298;2022-11-23T12:34:10;14.20;57.10
43995;DHT22;51687;52.160;5.298;2022-11-23T12:36:56;14.20;57.70
43995;DHT22;51687;52.160;5.298;2022-11-23T12:42:52;14.30;56.80
43995;DHT22;51687;52.160;5.298;2022-11-23T12:54:04;14.40;56.70
43995;DHT22;51687;52.160;5.298;2022-11-23T12:56:57;14.40;56.70
43995;DHT22;51687;52.160;5.298;2022-11-23T12:59:29;14.40;57.10
43995;DHT22;51687;52.160;5.298;2022-11-23T13:02:02;14.30;56.10
43995;DHT22;51687;52.160;5.298;2022-11-23T13:04:47;14.30;56.40
43995;DHT22;51687;52.160;5.298;2022-11-23T13:08:05;14.20;56.40
43995;DHT22;51687;52.160;5.298;2022-11-23T13:10:59;14.30;56.70
43995;DHT22;51687;52.160;5.298;2022-11-23T13:16:45;14.30;57.30
43995;DHT22;51687;52.160;5.298;2022-11-23T13:21:56;14.30;56.50
43995;DHT22;51687;52.160;5.298;2022-11-23T13:24:34;14.40;56.70
43995;DHT22;51687;52.160;5.298;2022-11-23T13:40:39;14.50;56.70
43995;DHT22;51687;52.160;5.298;2022-11-23T13:43:33;14.50;56.50
43995;DHT22;51687;52.160;5.298;2022-11-23T13:46:24;14.50;56.80
43995;DHT22;51687;52.160;5.298;2022-11-23T13:48:55;14.50;57.20
43995;DHT22;51687;52.160;5.298;2022-11-23T13:51:34;14.60;57.60
43995;DHT22;51687;52.160;5.298;2022-11-23T13:54:17;14.50;59.20
43995;DHT22;51687;52.160;5.298;2022-11-23T13:56:56;14.60;59.80
43995;DHT22;51687;52.160;5.298;2022-11-23T13:59:30;14.60;60.30
43995;DHT22;51687;52.160;5.298;2022-11-23T14:04:29;14.60;61.00
43995;DHT22;51687;52.160;5.298;2022-11-23T14:07:04;14.60;61.10
43995;DHT22;51687;52.160;5.298;2022-11-23T14:09:42;14.60;61.20
43995;DHT22;51687;52.160;5.298;2022-11-23T14:15:12;14.60;62.00
43995;DHT22;51687;52.160;5.298;2022-11-23T14:18:06;14.60;61.60
43995;DHT22;51687;52.160;5.298;2022-11-23T14:20:44;14.60;62.20
43995;DHT22;51687;52.160;5.298;2022-11-23T14:26:42;14.50;62.50
43995;DHT22;51687;52.160;5.298;2022-11-23T14:32:12;14.50;62.70
43995;DHT22;51687;52.160;5.298;2022-11-23T14:40:51;14.50;62.90
43995;DHT22;51687;52.160;5.298;2022-11-23T14:43:20;14.50;63.20
43995;DHT22;51687;52.160;5.298;2022-11-23T14:45:47;14.50;63.10
43995;DHT22;51687;52.160;5.298;2022-11-23T14:48:29;14.50;63.10
43995;DHT22;51687;52.160;5.298;2022-11-23T14:51:05;14.50;63.50
43995;DHT22;51687;52.160;5.298;2022-11-23T14:53:41;14.50;63.70
43995;DHT22;51687;52.160;5.298;2022-11-23T14:58:46;14.50;63.10
43995;DHT22;51687;52.160;5.298;2022-11-23T15:01:19;14.40;63.10
43995;DHT22;51687;52.160;5.298;2022-11-23T15:03:58;14.20;63.80
43995;DHT22;51687;52.160;5.298;2022-11-23T15:06:30;14.10;64.30
43995;DHT22;51687;52.160;5.298;2022-11-23T15:11:28;13.90;64.80
43995;DHT22;51687;52.160;5.298;2022-11-23T15:13:56;13.80;65.20
43995;DHT22;51687;52.160;5.298;2022-11-23T15:16:28;13.80;65.50
43995;DHT22;51687;52.160;5.298;2022-11-23T15:19:17;13.70;65.70
43995;DHT22;51687;52.160;5.298;2022-11-23T15:21:44;13.60;66.30
43995;DHT22;51687;52.160;5.298;2022-11-23T15:24:25;13.50;66.60
43995;DHT22;51687;52.160;5.298;2022-11-23T15:26:57;13.40;67.10
43995;DHT22;51687;52.160;5.298;2022-11-23T15:29:36;13.30;67.40
43995;DHT22;51687;52.160;5.298;2022-11-23T15:32:28;13.20;67.70
43995;DHT22;51687;52.160;5.298;2022-11-23T15:35:04;13.20;68.00
43995;DHT22;51687;52.160;5.298;2022-11-23T15:37:39;13.20;68.00
43995;DHT22;51687;52.160;5.298;2022-11-23T15:40:14;13.10;68.30
43995;DHT22;51687;52.160;5.298;2022-11-23T15:42:43;13.10;68.60
43995;DHT22;51687;52.160;5.298;2022-11-23T15:45:33;13.20;68.30
43995;DHT22;51687;52.160;5.298;2022-11-23T15:48:02;13.30;68.10
43995;DHT22;51687;52.160;5.298;2022-11-23T15:50:29;13.50;67.70
43995;DHT22;51687;52.160;5.298;2022-11-23T15:53:00;13.50;67.40
43995;DHT22;51687;52.160;5.298;2022-11-23T15:55:29;13.60;67.20
43995;DHT22;51687;52.160;5.298;2022-11-23T15:57:56;13.60;67.00
43995;DHT22;51687;52.160;5.298;2022-11-23T16:00:24;13.70;66.90
43995;DHT22;51687;52.160;5.298;2022-11-23T16:02:51;13.70;66.80
43995;DHT22;51687;52.160;5.298;2022-11-23T16:05:19;13.70;66.70
43995;DHT22;51687;52.160;5.298;2022-11-23T16:07:54;13.70;66.70
43995;DHT22;51687;52.160;5.298;2022-11-23T16:10:32;13.80;66.50
43995;DHT22;51687;52.160;5.298;2022-11-23T16:13:01;13.80;66.40
43995;DHT22;51687;52.160;5.298;2022-11-23T16:18:04;13.90;66.10
43995;DHT22;51687;52.160;5.298;2022-11-23T16:20:32;13.90;66.00
43995;DHT22;51687;52.160;5.298;2022-11-23T16:22:59;13.90;66.10
43995;DHT22;51687;52.160;5.298;2022-11-23T16:25:31;13.90;66.10
43995;DHT22;51687;52.160;5.298;2022-11-23T16:28:14;13.90;66.20
43995;DHT22;51687;52.160;5.298;2022-11-23T16:30:43;13.90;66.20
43995;DHT22;51687;52.160;5.298;2022-11-23T16:33:17;13.90;66.10
43995;DHT22;51687;52.160;5.298;2022-11-23T16:35:44;13.90;66.30
43995;DHT22;51687;52.160;5.298;2022-11-23T16:38:11;13.80;66.30
43995;DHT22;51687;52.160;5.298;2022-11-23T16:40:39;13.80;66.30
43995;DHT22;51687;52.160;5.298;2022-11-23T16:43:11;13.80;66.50
43995;DHT22;51687;52.160;5.298;2022-11-23T16:45:40;13.80;66.40
43995;DHT22;51687;52.160;5.298;2022-11-23T16:50:52;13.80;67.10
43995;DHT22;51687;52.160;5.298;2022-11-23T16:53:19;13.80;66.50
43995;DHT22;51687;52.160;5.298;2022-11-23T16:55:53;13.80;66.60
43995;DHT22;51687;52.160;5.298;2022-11-23T16:58:20;13.80;66.80
43995;DHT22;51687;52.160;5.298;2022-11-23T17:00:48;13.80;66.80
43995;DHT22;51687;52.160;5.298;2022-11-23T17:03:16;13.80;66.80
43995;DHT22;51687;52.160;5.298;2022-11-23T17:05:44;13.70;66.90
43995;DHT22;51687;52.160;5.298;2022-11-23T17:08:12;13.70;67.00
43995;DHT22;51687;52.160;5.298;2022-11-23T17:10:47;13.70;67.10
43995;DHT22;51687;52.160;5.298;2022-11-23T17:13:23;13.70;67.00
43995;DHT22;51687;52.160;5.298;2022-11-23T17:15:51;13.70;67.30
43995;DHT22;51687;52.160;5.298;2022-11-23T17:18:18;13.70;67.30
43995;DHT22;51687;52.160;5.298;2022-11-23T17:20:45;13.60;67.80
43995;DHT22;51687;52.160;5.298;2022-11-23T17:23:12;13.60;67.50
43995;DHT22;51687;52.160;5.298;2022-11-23T17:25:39;13.50;67.70
43995;DHT22;51687;52.160;5.298;2022-11-23T17:28:13;13.60;67.80